North River, North Dakota
Current Conditions -  °F | °C
As of 2:53 AM on Wednesday 26 Nov 2014 (Local Time) from KFAR Reporting Station
Overcast Overcast  
Wind Chill: -2°   Ceiling: 5000
Heat Index: 15°   Visibility: 8mi
Dew Point:   Wind: 20mph
Humidity: 77%   Direction: 360°N
Pressure: 30.17"   Gusts: NA
Location:  46.9259°N, 96.8507°W
Report Text: KFAR 260853Z 36017KT 8SM BKN050 BKN070 OVC090 M09/M13 A3017 RMK AO2 PK WND 35026/0828 SLP232 60000 T10941128 53035
Loading
Personal Weather Stations






























Interactive Weather Map New forecast layout! Learn more

10-Day Weather Forecast

Advertisements
Track Severe Weather on mobile